sensor_id;sensor_type;location;lat;lon;timestamp;P1;durP1;ratioP1;P2;durP2;ratioP2
25663;SDS011;13522;50.018;20.014;2023-02-20T00:00:02;18.98;;;9.28;;
25663;SDS011;13522;50.018;20.014;2023-02-20T00:03:23;18.50;;;8.10;;
25663;SDS011;13522;50.018;20.014;2023-02-20T00:06:36;22.90;;;8.70;;
25663;SDS011;13522;50.018;20.014;2023-02-20T00:09:48;21.33;;;8.60;;
25663;SDS011;13522;50.018;20.014;2023-02-20T00:13:00;21.48;;;8.65;;
25663;SDS011;13522;50.018;20.014;2023-02-20T00:16:12;20.30;;;9.50;;
25663;SDS011;13522;50.018;20.014;2023-02-20T00:19:25;22.08;;;9.15;;
25663;SDS011;13522;50.018;20.014;2023-02-20T00:22:38;24.43;;;8.78;;
25663;SDS011;13522;50.018;20.014;2023-02-20T00:25:50;20.75;;;8.68;;
25663;SDS011;13522;50.018;20.014;2023-02-20T00:29:02;19.10;;;8.08;;
25663;SDS011;13522;50.018;20.014;2023-02-20T00:32:14;19.48;;;9.13;;
25663;SDS011;13522;50.018;20.014;2023-02-20T00:35:27;31.80;;;8.40;;
25663;SDS011;13522;50.018;20.014;2023-02-20T00:38:42;18.35;;;8.78;;
25663;SDS011;13522;50.018;20.014;2023-02-20T00:41:54;23.55;;;8.40;;
25663;SDS011;13522;50.018;20.014;2023-02-20T00:45:06;17.58;;;7.93;;
25663;SDS011;13522;50.018;20.014;2023-02-20T00:48:19;17.85;;;8.35;;
25663;SDS011;13522;50.018;20.014;2023-02-20T00:51:33;20.13;;;8.48;;
25663;SDS011;13522;50.018;20.014;2023-02-20T00:54:45;18.60;;;8.18;;
25663;SDS011;13522;50.018;20.014;2023-02-20T00:57:57;16.98;;;7.83;;
25663;SDS011;13522;50.018;20.014;2023-02-20T01:01:10;21.00;;;8.43;;
25663;SDS011;13522;50.018;20.014;2023-02-20T01:04:22;18.18;;;7.58;;
25663;SDS011;13522;50.018;20.014;2023-02-20T01:07:34;17.45;;;7.88;;
25663;SDS011;13522;50.018;20.014;2023-02-20T01:10:46;17.05;;;7.68;;
25663;SDS011;13522;50.018;20.014;2023-02-20T01:13:59;17.88;;;8.50;;
25663;SDS011;13522;50.018;20.014;2023-02-20T01:17:12;18.30;;;8.35;;
25663;SDS011;13522;50.018;20.014;2023-02-20T01:20:24;19.13;;;8.20;;
25663;SDS011;13522;50.018;20.014;2023-02-20T01:23:36;23.68;;;7.98;;
25663;SDS011;13522;50.018;20.014;2023-02-20T01:26:48;22.65;;;7.95;;
25663;SDS011;13522;50.018;20.014;2023-02-20T01:30:00;17.85;;;7.50;;
25663;SDS011;13522;50.018;20.014;2023-02-20T01:33:14;16.60;;;7.78;;
25663;SDS011;13522;50.018;20.014;2023-02-20T01:36:28;20.33;;;7.40;;
25663;SDS011;13522;50.018;20.014;2023-02-20T01:39:41;24.70;;;7.78;;
25663;SDS011;13522;50.018;20.014;2023-02-20T01:42:55;16.70;;;7.00;;
25663;SDS011;13522;50.018;20.014;2023-02-20T01:50:08;18.65;;;7.98;;
25663;SDS011;13522;50.018;20.014;2023-02-20T01:53:22;16.75;;;6.80;;
25663;SDS011;13522;50.018;20.014;2023-02-20T01:56:37;21.90;;;7.43;;
25663;SDS011;13522;50.018;20.014;2023-02-20T01:59:49;17.93;;;6.85;;
25663;SDS011;13522;50.018;20.014;2023-02-20T02:03:09;21.25;;;6.88;;
25663;SDS011;13522;50.018;20.014;2023-02-20T02:06:23;20.73;;;7.28;;
25663;SDS011;13522;50.018;20.014;2023-02-20T02:09:37;20.05;;;6.80;;
25663;SDS011;13522;50.018;20.014;2023-02-20T02:16:08;16.95;;;7.18;;
25663;SDS011;13522;50.018;20.014;2023-02-20T02:19:37;17.03;;;7.73;;
25663;SDS011;13522;50.018;20.014;2023-02-20T02:23:51;15.70;;;6.75;;
25663;SDS011;13522;50.018;20.014;2023-02-20T02:27:51;16.53;;;6.93;;
25663;SDS011;13522;50.018;20.014;2023-02-20T02:39:51;19.28;;;6.80;;
25663;SDS011;13522;50.018;20.014;2023-02-20T02:43:10;19.03;;;6.80;;
25663;SDS011;13522;50.018;20.014;2023-02-20T02:46:26;13.48;;;6.30;;
25663;SDS011;13522;50.018;20.014;2023-02-20T02:49:43;20.05;;;6.88;;
25663;SDS011;13522;50.018;20.014;2023-02-20T02:53:00;14.65;;;5.93;;
25663;SDS011;13522;50.018;20.014;2023-02-20T02:56:14;14.45;;;6.28;;
25663;SDS011;13522;50.018;20.014;2023-02-20T02:59:30;15.53;;;6.75;;
25663;SDS011;13522;50.018;20.014;2023-02-20T03:02:48;15.53;;;5.95;;
25663;SDS011;13522;50.018;20.014;2023-02-20T03:06:07;20.88;;;7.03;;
25663;SDS011;13522;50.018;20.014;2023-02-20T03:09:25;12.30;;;5.68;;
25663;SDS011;13522;50.018;20.014;2023-02-20T03:12:41;22.15;;;6.25;;
25663;SDS011;13522;50.018;20.014;2023-02-20T03:15:56;18.80;;;7.00;;
25663;SDS011;13522;50.018;20.014;2023-02-20T03:19:12;18.88;;;6.23;;
25663;SDS011;13522;50.018;20.014;2023-02-20T03:22:29;19.55;;;5.43;;
25663;SDS011;13522;50.018;20.014;2023-02-20T03:25:49;17.55;;;6.38;;
25663;SDS011;13522;50.018;20.014;2023-02-20T03:29:06;16.25;;;5.95;;
25663;SDS011;13522;50.018;20.014;2023-02-20T03:32:26;14.23;;;5.40;;
25663;SDS011;13522;50.018;20.014;2023-02-20T03:35:55;15.00;;;5.70;;
25663;SDS011;13522;50.018;20.014;2023-02-20T03:39:27;15.70;;;5.45;;
25663;SDS011;13522;50.018;20.014;2023-02-20T03:42:58;15.58;;;6.43;;
25663;SDS011;13522;50.018;20.014;2023-02-20T03:46:33;13.73;;;5.70;;
25663;SDS011;13522;50.018;20.014;2023-02-20T03:49:47;16.35;;;5.95;;
25663;SDS011;13522;50.018;20.014;2023-02-20T03:53:04;17.75;;;5.78;;
25663;SDS011;13522;50.018;20.014;2023-02-20T03:56:17;14.35;;;5.43;;
25663;SDS011;13522;50.018;20.014;2023-02-20T03:59:35;12.33;;;5.10;;
25663;SDS011;13522;50.018;20.014;2023-02-20T04:02:53;12.63;;;5.28;;
25663;SDS011;13522;50.018;20.014;2023-02-20T04:06:11;13.15;;;4.70;;
25663;SDS011;13522;50.018;20.014;2023-02-20T04:09:27;11.43;;;4.43;;
25663;SDS011;13522;50.018;20.014;2023-02-20T04:12:43;14.95;;;4.35;;
25663;SDS011;13522;50.018;20.014;2023-02-20T04:15:59;12.60;;;5.05;;
25663;SDS011;13522;50.018;20.014;2023-02-20T04:19:13;12.50;;;4.75;;
25663;SDS011;13522;50.018;20.014;2023-02-20T04:22:27;15.98;;;4.98;;
25663;SDS011;13522;50.018;20.014;2023-02-20T04:25:45;14.05;;;4.55;;
25663;SDS011;13522;50.018;20.014;2023-02-20T04:29:01;12.77;;;4.90;;
25663;SDS011;13522;50.018;20.014;2023-02-20T04:32:14;16.00;;;4.95;;
25663;SDS011;13522;50.018;20.014;2023-02-20T04:35:27;14.35;;;4.65;;
25663;SDS011;13522;50.018;20.014;2023-02-20T04:38:39;12.88;;;4.70;;
25663;SDS011;13522;50.018;20.014;2023-02-20T04:41:53;13.03;;;4.05;;
25663;SDS011;13522;50.018;20.014;2023-02-20T04:45:06;15.73;;;4.70;;
25663;SDS011;13522;50.018;20.014;2023-02-20T04:48:21;14.48;;;4.70;;
25663;SDS011;13522;50.018;20.014;2023-02-20T04:51:33;10.50;;;4.10;;
25663;SDS011;13522;50.018;20.014;2023-02-20T04:54:46;8.55;;;4.25;;
25663;SDS011;13522;50.018;20.014;2023-02-20T04:57:59;13.08;;;5.23;;
25663;SDS011;13522;50.018;20.014;2023-02-20T05:01:13;17.90;;;5.45;;
25663;SDS011;13522;50.018;20.014;2023-02-20T05:04:25;12.98;;;4.43;;
25663;SDS011;13522;50.018;20.014;2023-02-20T05:07:37;11.15;;;4.88;;
25663;SDS011;13522;50.018;20.014;2023-02-20T05:10:49;10.60;;;4.03;;
25663;SDS011;13522;50.018;20.014;2023-02-20T05:14:01;14.85;;;3.93;;
25663;SDS011;13522;50.018;20.014;2023-02-20T05:17:13;8.75;;;3.88;;
25663;SDS011;13522;50.018;20.014;2023-02-20T05:20:25;10.00;;;3.70;;
25663;SDS011;13522;50.018;20.014;2023-02-20T05:23:52;10.40;;;3.33;;
25663;SDS011;13522;50.018;20.014;2023-02-20T05:27:06;6.98;;;3.33;;
25663;SDS011;13522;50.018;20.014;2023-02-20T05:30:18;11.73;;;3.48;;
25663;SDS011;13522;50.018;20.014;2023-02-20T05:33:30;7.98;;;3.48;;
25663;SDS011;13522;50.018;20.014;2023-02-20T05:36:42;9.03;;;3.48;;
25663;SDS011;13522;50.018;20.014;2023-02-20T05:39:54;7.45;;;3.58;;
25663;SDS011;13522;50.018;20.014;2023-02-20T05:43:06;15.15;;;4.00;;
25663;SDS011;13522;50.018;20.014;2023-02-20T05:46:18;21.80;;;3.80;;
25663;SDS011;13522;50.018;20.014;2023-02-20T05:49:31;9.00;;;3.53;;
25663;SDS011;13522;50.018;20.014;2023-02-20T05:52:44;9.23;;;3.78;;
25663;SDS011;13522;50.018;20.014;2023-02-20T05:55:56;13.00;;;3.35;;
25663;SDS011;13522;50.018;20.014;2023-02-20T05:59:08;9.08;;;3.90;;
25663;SDS011;13522;50.018;20.014;2023-02-20T06:02:21;13.28;;;3.75;;
25663;SDS011;13522;50.018;20.014;2023-02-20T06:05:34;13.50;;;3.58;;
25663;SDS011;13522;50.018;20.014;2023-02-20T06:08:46;10.35;;;3.60;;
25663;SDS011;13522;50.018;20.014;2023-02-20T06:11:59;8.20;;;3.35;;
25663;SDS011;13522;50.018;20.014;2023-02-20T06:15:11;10.90;;;3.10;;
25663;SDS011;13522;50.018;20.014;2023-02-20T06:18:23;8.45;;;3.45;;
25663;SDS011;13522;50.018;20.014;2023-02-20T06:21:35;8.83;;;3.20;;
25663;SDS011;13522;50.018;20.014;2023-02-20T06:24:49;8.18;;;2.83;;
25663;SDS011;13522;50.018;20.014;2023-02-20T06:28:01;9.70;;;3.38;;
25663;SDS011;13522;50.018;20.014;2023-02-20T06:31:18;9.83;;;3.35;;
25663;SDS011;13522;50.018;20.014;2023-02-20T06:34:32;11.08;;;3.68;;
25663;SDS011;13522;50.018;20.014;2023-02-20T06:37:45;8.93;;;3.40;;
25663;SDS011;13522;50.018;20.014;2023-02-20T06:40:56;9.18;;;3.58;;
25663;SDS011;13522;50.018;20.014;2023-02-20T06:44:08;12.03;;;3.65;;
25663;SDS011;13522;50.018;20.014;2023-02-20T06:47:20;12.60;;;3.65;;
25663;SDS011;13522;50.018;20.014;2023-02-20T06:50:33;12.03;;;3.13;;
25663;SDS011;13522;50.018;20.014;2023-02-20T06:53:45;10.90;;;3.40;;
25663;SDS011;13522;50.018;20.014;2023-02-20T06:56:57;9.68;;;3.73;;
25663;SDS011;13522;50.018;20.014;2023-02-20T07:00:11;11.03;;;3.53;;
25663;SDS011;13522;50.018;20.014;2023-02-20T07:03:25;10.40;;;2.90;;
25663;SDS011;13522;50.018;20.014;2023-02-20T07:06:38;8.90;;;3.13;;
25663;SDS011;13522;50.018;20.014;2023-02-20T07:09:50;6.98;;;3.10;;
25663;SDS011;13522;50.018;20.014;2023-02-20T07:13:04;10.25;;;3.50;;
25663;SDS011;13522;50.018;20.014;2023-02-20T07:16:16;12.10;;;4.18;;
25663;SDS011;13522;50.018;20.014;2023-02-20T07:19:28;9.73;;;3.58;;
25663;SDS011;13522;50.018;20.014;2023-02-20T07:22:45;9.58;;;3.55;;
25663;SDS011;13522;50.018;20.014;2023-02-20T07:26:19;9.18;;;3.70;;
25663;SDS011;13522;50.018;20.014;2023-02-20T07:29:34;15.13;;;5.40;;
25663;SDS011;13522;50.018;20.014;2023-02-20T07:32:47;13.28;;;4.03;;
25663;SDS011;13522;50.018;20.014;2023-02-20T07:35:59;11.73;;;3.73;;
25663;SDS011;13522;50.018;20.014;2023-02-20T07:39:40;11.38;;;3.90;;
25663;SDS011;13522;50.018;20.014;2023-02-20T07:43:20;11.30;;;4.53;;
25663;SDS011;13522;50.018;20.014;2023-02-20T07:46:41;11.50;;;4.05;;
25663;SDS011;13522;50.018;20.014;2023-02-20T07:50:22;10.13;;;3.98;;
25663;SDS011;13522;50.018;20.014;2023-02-20T07:53:34;11.90;;;4.60;;
25663;SDS011;13522;50.018;20.014;2023-02-20T07:56:46;9.78;;;4.33;;
25663;SDS011;13522;50.018;20.014;2023-02-20T07:59:58;18.88;;;5.28;;
25663;SDS011;13522;50.018;20.014;2023-02-20T08:03:13;14.35;;;4.80;;
25663;SDS011;13522;50.018;20.014;2023-02-20T08:06:25;8.85;;;4.25;;
25663;SDS011;13522;50.018;20.014;2023-02-20T08:09:37;12.20;;;4.43;;
25663;SDS011;13522;50.018;20.014;2023-02-20T08:12:49;12.35;;;4.93;;
25663;SDS011;13522;50.018;20.014;2023-02-20T08:16:02;14.58;;;5.10;;
25663;SDS011;13522;50.018;20.014;2023-02-20T08:19:16;12.83;;;5.13;;
25663;SDS011;13522;50.018;20.014;2023-02-20T08:22:28;12.15;;;5.40;;
25663;SDS011;13522;50.018;20.014;2023-02-20T08:25:42;14.23;;;5.30;;
25663;SDS011;13522;50.018;20.014;2023-02-20T08:28:55;12.63;;;5.20;;
25663;SDS011;13522;50.018;20.014;2023-02-20T08:32:07;11.45;;;4.78;;
25663;SDS011;13522;50.018;20.014;2023-02-20T08:35:19;10.80;;;4.83;;
25663;SDS011;13522;50.018;20.014;2023-02-20T08:38:33;11.20;;;4.63;;
25663;SDS011;13522;50.018;20.014;2023-02-20T08:41:46;12.43;;;4.28;;
25663;SDS011;13522;50.018;20.014;2023-02-20T08:44:58;9.53;;;3.85;;
25663;SDS011;13522;50.018;20.014;2023-02-20T08:48:12;9.88;;;4.25;;
25663;SDS011;13522;50.018;20.014;2023-02-20T08:51:24;10.23;;;3.58;;
25663;SDS011;13522;50.018;20.014;2023-02-20T08:54:37;12.08;;;3.70;;
25663;SDS011;13522;50.018;20.014;2023-02-20T08:57:51;7.78;;;3.68;;
25663;SDS011;13522;50.018;20.014;2023-02-20T09:01:04;5.78;;;2.83;;
25663;SDS011;13522;50.018;20.014;2023-02-20T09:04:16;5.95;;;3.08;;
25663;SDS011;13522;50.018;20.014;2023-02-20T09:07:28;5.83;;;3.40;;
25663;SDS011;13522;50.018;20.014;2023-02-20T09:10:40;8.33;;;3.15;;
25663;SDS011;13522;50.018;20.014;2023-02-20T09:13:52;5.75;;;2.88;;
25663;SDS011;13522;50.018;20.014;2023-02-20T09:17:05;6.05;;;3.23;;
25663;SDS011;13522;50.018;20.014;2023-02-20T09:20:17;5.80;;;3.05;;
25663;SDS011;13522;50.018;20.014;2023-02-20T09:23:30;6.38;;;3.35;;
25663;SDS011;13522;50.018;20.014;2023-02-20T09:26:42;6.10;;;2.70;;
25663;SDS011;13522;50.018;20.014;2023-02-20T09:29:54;5.05;;;2.95;;
25663;SDS011;13522;50.018;20.014;2023-02-20T09:33:07;6.85;;;3.20;;
25663;SDS011;13522;50.018;20.014;2023-02-20T09:36:20;8.43;;;3.30;;
25663;SDS011;13522;50.018;20.014;2023-02-20T09:39:32;7.70;;;2.85;;
25663;SDS011;13522;50.018;20.014;2023-02-20T09:42:50;5.63;;;3.30;;
25663;SDS011;13522;50.018;20.014;2023-02-20T09:46:10;7.20;;;3.60;;
25663;SDS011;13522;50.018;20.014;2023-02-20T09:49:26;11.53;;;4.17;;
25663;SDS011;13522;50.018;20.014;2023-02-20T09:52:43;7.28;;;3.18;;
25663;SDS011;13522;50.018;20.014;2023-02-20T09:56:01;10.03;;;3.18;;
25663;SDS011;13522;50.018;20.014;2023-02-20T09:59:18;5.68;;;3.38;;
25663;SDS011;13522;50.018;20.014;2023-02-20T10:02:35;8.23;;;3.30;;
25663;SDS011;13522;50.018;20.014;2023-02-20T10:05:52;10.05;;;3.35;;
25663;SDS011;13522;50.018;20.014;2023-02-20T10:09:08;6.80;;;3.10;;
25663;SDS011;13522;50.018;20.014;2023-02-20T10:12:24;7.03;;;3.40;;
25663;SDS011;13522;50.018;20.014;2023-02-20T10:15:41;7.75;;;3.48;;
25663;SDS011;13522;50.018;20.014;2023-02-20T10:19:01;6.38;;;2.60;;
25663;SDS011;13522;50.018;20.014;2023-02-20T10:22:22;6.40;;;3.03;;
25663;SDS011;13522;50.018;20.014;2023-02-20T10:25:40;7.33;;;3.23;;
25663;SDS011;13522;50.018;20.014;2023-02-20T10:28:55;8.70;;;3.43;;
25663;SDS011;13522;50.018;20.014;2023-02-20T10:32:17;5.85;;;3.63;;
25663;SDS011;13522;50.018;20.014;2023-02-20T10:35:34;9.48;;;3.73;;
25663;SDS011;13522;50.018;20.014;2023-02-20T10:38:52;6.75;;;3.43;;
25663;SDS011;13522;50.018;20.014;2023-02-20T10:42:09;8.80;;;4.00;;
25663;SDS011;13522;50.018;20.014;2023-02-20T10:45:29;7.50;;;3.68;;
25663;SDS011;13522;50.018;20.014;2023-02-20T10:48:47;7.05;;;3.08;;
25663;SDS011;13522;50.018;20.014;2023-02-20T10:52:01;7.30;;;3.63;;
25663;SDS011;13522;50.018;20.014;2023-02-20T10:55:23;7.95;;;3.38;;
25663;SDS011;13522;50.018;20.014;2023-02-20T10:58:39;7.18;;;3.50;;
25663;SDS011;13522;50.018;20.014;2023-02-20T11:01:55;6.58;;;3.70;;
25663;SDS011;13522;50.018;20.014;2023-02-20T11:05:12;5.77;;;3.27;;
25663;SDS011;13522;50.018;20.014;2023-02-20T11:08:28;5.28;;;3.33;;
25663;SDS011;13522;50.018;20.014;2023-02-20T11:11:41;6.58;;;3.80;;
25663;SDS011;13522;50.018;20.014;2023-02-20T11:14:56;7.00;;;3.60;;
25663;SDS011;13522;50.018;20.014;2023-02-20T11:18:19;7.68;;;3.78;;
25663;SDS011;13522;50.018;20.014;2023-02-20T11:21:34;4.98;;;3.30;;
25663;SDS011;13522;50.018;20.014;2023-02-20T11:24:49;7.13;;;3.60;;
25663;SDS011;13522;50.018;20.014;2023-02-20T11:28:07;7.25;;;3.95;;
25663;SDS011;13522;50.018;20.014;2023-02-20T11:31:26;8.00;;;4.40;;
25663;SDS011;13522;50.018;20.014;2023-02-20T11:34:39;5.68;;;3.30;;
25663;SDS011;13522;50.018;20.014;2023-02-20T11:38:14;5.58;;;3.43;;
25663;SDS011;13522;50.018;20.014;2023-02-20T11:41:35;5.28;;;3.03;;
25663;SDS011;13522;50.018;20.014;2023-02-20T11:44:48;5.53;;;3.30;;
25663;SDS011;13522;50.018;20.014;2023-02-20T11:48:19;11.45;;;3.83;;
25663;SDS011;13522;50.018;20.014;2023-02-20T11:51:33;8.28;;;3.83;;
25663;SDS011;13522;50.018;20.014;2023-02-20T11:54:49;7.38;;;3.45;;
25663;SDS011;13522;50.018;20.014;2023-02-20T11:58:23;6.53;;;3.43;;
25663;SDS011;13522;50.018;20.014;2023-02-20T12:01:37;6.23;;;3.53;;
25663;SDS011;13522;50.018;20.014;2023-02-20T12:05:01;5.60;;;3.30;;
25663;SDS011;13522;50.018;20.014;2023-02-20T12:08:21;8.43;;;3.48;;
25663;SDS011;13522;50.018;20.014;2023-02-20T12:11:56;7.48;;;4.00;;
25663;SDS011;13522;50.018;20.014;2023-02-20T12:15:12;5.53;;;3.48;;
25663;SDS011;13522;50.018;20.014;2023-02-20T12:18:34;4.80;;;3.33;;
25663;SDS011;13522;50.018;20.014;2023-02-20T12:21:58;7.48;;;3.48;;
25663;SDS011;13522;50.018;20.014;2023-02-20T12:25:23;8.20;;;3.78;;
25663;SDS011;13522;50.018;20.014;2023-02-20T12:28:40;6.28;;;3.90;;
25663;SDS011;13522;50.018;20.014;2023-02-20T12:32:02;6.88;;;4.15;;
25663;SDS011;13522;50.018;20.014;2023-02-20T12:38:52;5.80;;;3.60;;
25663;SDS011;13522;50.018;20.014;2023-02-20T12:42:13;9.03;;;3.88;;
25663;SDS011;13522;50.018;20.014;2023-02-20T12:45:33;6.35;;;3.65;;
25663;SDS011;13522;50.018;20.014;2023-02-20T12:49:04;5.78;;;3.68;;
25663;SDS011;13522;50.018;20.014;2023-02-20T12:52:21;6.05;;;3.70;;
25663;SDS011;13522;50.018;20.014;2023-02-20T12:56:04;7.58;;;4.05;;
25663;SDS011;13522;50.018;20.014;2023-02-20T12:59:25;9.15;;;4.20;;
25663;SDS011;13522;50.018;20.014;2023-02-20T13:02:44;8.00;;;4.83;;
25663;SDS011;13522;50.018;20.014;2023-02-20T13:06:01;5.48;;;4.25;;
25663;SDS011;13522;50.018;20.014;2023-02-20T13:09:17;7.30;;;4.23;;
25663;SDS011;13522;50.018;20.014;2023-02-20T13:12:34;8.65;;;4.43;;
25663;SDS011;13522;50.018;20.014;2023-02-20T13:15:49;6.63;;;4.28;;
25663;SDS011;13522;50.018;20.014;2023-02-20T13:19:09;6.98;;;3.98;;
25663;SDS011;13522;50.018;20.014;2023-02-20T13:25:40;6.25;;;4.10;;
25663;SDS011;13522;50.018;20.014;2023-02-20T13:28:54;7.15;;;4.65;;
25663;SDS011;13522;50.018;20.014;2023-02-20T13:32:23;10.63;;;4.98;;
25663;SDS011;13522;50.018;20.014;2023-02-20T13:35:43;8.83;;;4.23;;
25663;SDS011;13522;50.018;20.014;2023-02-20T13:53:38;10.58;;;4.65;;
25663;SDS011;13522;50.018;20.014;2023-02-20T13:56:53;6.20;;;4.13;;
25663;SDS011;13522;50.018;20.014;2023-02-20T14:00:16;7.13;;;4.35;;
25663;SDS011;13522;50.018;20.014;2023-02-20T14:03:34;7.55;;;4.53;;
25663;SDS011;13522;50.018;20.014;2023-02-20T14:06:50;7.60;;;4.50;;
25663;SDS011;13522;50.018;20.014;2023-02-20T14:10:05;9.83;;;4.17;;
25663;SDS011;13522;50.018;20.014;2023-02-20T14:13:25;8.33;;;4.65;;
25663;SDS011;13522;50.018;20.014;2023-02-20T14:16:40;7.10;;;4.30;;
25663;SDS011;13522;50.018;20.014;2023-02-20T14:19:55;7.68;;;4.35;;
25663;SDS011;13522;50.018;20.014;2023-02-20T14:23:23;9.20;;;4.40;;
25663;SDS011;13522;50.018;20.014;2023-02-20T14:26:37;8.70;;;4.45;;
25663;SDS011;13522;50.018;20.014;2023-02-20T14:29:53;9.30;;;4.50;;
25663;SDS011;13522;50.018;20.014;2023-02-20T14:33:25;7.28;;;4.48;;
25663;SDS011;13522;50.018;20.014;2023-02-20T14:36:50;6.28;;;4.48;;
25663;SDS011;13522;50.018;20.014;2023-02-20T14:40:15;8.48;;;4.78;;
25663;SDS011;13522;50.018;20.014;2023-02-20T14:43:32;7.90;;;4.40;;
25663;SDS011;13522;50.018;20.014;2023-02-20T14:46:44;6.63;;;4.58;;
25663;SDS011;13522;50.018;20.014;2023-02-20T14:50:14;8.65;;;4.28;;
25663;SDS011;13522;50.018;20.014;2023-02-20T14:53:29;9.28;;;5.43;;
25663;SDS011;13522;50.018;20.014;2023-02-20T14:56:42;7.08;;;4.40;;
25663;SDS011;13522;50.018;20.014;2023-02-20T15:00:10;8.10;;;4.70;;
25663;SDS011;13522;50.018;20.014;2023-02-20T15:03:41;7.88;;;5.13;;
25663;SDS011;13522;50.018;20.014;2023-02-20T15:07:04;10.55;;;4.75;;
25663;SDS011;13522;50.018;20.014;2023-02-20T15:10:30;8.33;;;4.83;;
25663;SDS011;13522;50.018;20.014;2023-02-20T15:16:49;6.70;;;4.33;;
25663;SDS011;13522;50.018;20.014;2023-02-20T15:20:35;8.55;;;4.78;;
25663;SDS011;13522;50.018;20.014;2023-02-20T15:23:51;6.48;;;4.35;;
25663;SDS011;13522;50.018;20.014;2023-02-20T15:27:10;6.80;;;4.60;;
25663;SDS011;13522;50.018;20.014;2023-02-20T15:30:31;7.90;;;5.03;;
25663;SDS011;13522;50.018;20.014;2023-02-20T15:33:47;9.53;;;4.60;;
25663;SDS011;13522;50.018;20.014;2023-02-20T15:40:08;8.68;;;5.20;;
25663;SDS011;13522;50.018;20.014;2023-02-20T15:43:30;8.98;;;4.75;;
25663;SDS011;13522;50.018;20.014;2023-02-20T15:46:46;7.80;;;4.95;;
25663;SDS011;13522;50.018;20.014;2023-02-20T15:49:58;13.85;;;4.63;;
25663;SDS011;13522;50.018;20.014;2023-02-20T15:53:11;7.55;;;4.70;;
25663;SDS011;13522;50.018;20.014;2023-02-20T15:56:30;9.05;;;5.58;;
25663;SDS011;13522;50.018;20.014;2023-02-20T15:59:43;7.20;;;4.98;;
25663;SDS011;13522;50.018;20.014;2023-02-20T16:02:58;6.95;;;5.03;;
25663;SDS011;13522;50.018;20.014;2023-02-20T16:06:10;7.93;;;4.85;;
25663;SDS011;13522;50.018;20.014;2023-02-20T16:09:23;9.53;;;4.88;;
25663;SDS011;13522;50.018;20.014;2023-02-20T16:18:36;9.98;;;5.15;;
25663;SDS011;13522;50.018;20.014;2023-02-20T16:21:54;14.15;;;5.15;;
25663;SDS011;13522;50.018;20.014;2023-02-20T16:28:06;9.48;;;5.10;;
25663;SDS011;13522;50.018;20.014;2023-02-20T16:31:19;10.85;;;4.93;;
25663;SDS011;13522;50.018;20.014;2023-02-20T16:34:31;10.40;;;4.98;;
25663;SDS011;13522;50.018;20.014;2023-02-20T16:40:58;9.28;;;4.95;;
25663;SDS011;13522;50.018;20.014;2023-02-20T16:44:11;7.85;;;4.88;;
25663;SDS011;13522;50.018;20.014;2023-02-20T16:47:29;7.90;;;4.43;;
25663;SDS011;13522;50.018;20.014;2023-02-20T16:50:41;6.45;;;4.08;;
25663;SDS011;13522;50.018;20.014;2023-02-20T16:53:57;10.10;;;4.83;;
25663;SDS011;13522;50.018;20.014;2023-02-20T16:57:10;8.50;;;4.20;;
25663;SDS011;13522;50.018;20.014;2023-02-20T17:00:25;10.55;;;4.40;;
25663;SDS011;13522;50.018;20.014;2023-02-20T17:03:41;7.33;;;4.10;;
25663;SDS011;13522;50.018;20.014;2023-02-20T17:06:53;9.63;;;3.98;;
25663;SDS011;13522;50.018;20.014;2023-02-20T17:10:06;7.33;;;4.40;;
25663;SDS011;13522;50.018;20.014;2023-02-20T17:13:18;8.40;;;4.43;;
25663;SDS011;13522;50.018;20.014;2023-02-20T17:16:31;9.40;;;3.85;;
25663;SDS011;13522;50.018;20.014;2023-02-20T17:19:44;8.55;;;4.30;;
25663;SDS011;13522;50.018;20.014;2023-02-20T17:22:58;7.25;;;4.08;;
25663;SDS011;13522;50.018;20.014;2023-02-20T17:26:11;12.40;;;4.48;;
25663;SDS011;13522;50.018;20.014;2023-02-20T17:29:23;7.75;;;3.95;;
25663;SDS011;13522;50.018;20.014;2023-02-20T17:32:35;7.45;;;4.33;;
25663;SDS011;13522;50.018;20.014;2023-02-20T17:35:47;7.75;;;4.23;;
25663;SDS011;13522;50.018;20.014;2023-02-20T17:38:59;7.70;;;3.68;;
25663;SDS011;13522;50.018;20.014;2023-02-20T17:42:12;8.93;;;4.35;;
25663;SDS011;13522;50.018;20.014;2023-02-20T17:45:24;7.55;;;4.25;;
25663;SDS011;13522;50.018;20.014;2023-02-20T17:48:37;6.75;;;3.83;;
25663;SDS011;13522;50.018;20.014;2023-02-20T17:51:51;11.15;;;5.10;;
25663;SDS011;13522;50.018;20.014;2023-02-20T17:55:06;6.83;;;3.90;;
25663;SDS011;13522;50.018;20.014;2023-02-20T17:58:25;5.75;;;3.53;;
25663;SDS011;13522;50.018;20.014;2023-02-20T18:01:37;6.35;;;3.43;;
25663;SDS011;13522;50.018;20.014;2023-02-20T18:04:50;9.03;;;3.70;;
25663;SDS011;13522;50.018;20.014;2023-02-20T18:08:02;8.45;;;4.20;;
25663;SDS011;13522;50.018;20.014;2023-02-20T18:11:14;8.13;;;3.60;;
25663;SDS011;13522;50.018;20.014;2023-02-20T18:14:27;8.18;;;4.10;;
25663;SDS011;13522;50.018;20.014;2023-02-20T18:17:39;7.75;;;3.60;;
25663;SDS011;13522;50.018;20.014;2023-02-20T18:20:53;10.18;;;3.63;;
25663;SDS011;13522;50.018;20.014;2023-02-20T18:24:05;7.05;;;3.60;;
25663;SDS011;13522;50.018;20.014;2023-02-20T18:27:17;8.85;;;4.38;;
25663;SDS011;13522;50.018;20.014;2023-02-20T18:30:29;7.18;;;4.33;;
25663;SDS011;13522;50.018;20.014;2023-02-20T18:33:42;10.63;;;3.90;;
25663;SDS011;13522;50.018;20.014;2023-02-20T18:36:54;9.93;;;4.13;;
25663;SDS011;13522;50.018;20.014;2023-02-20T18:40:08;8.63;;;3.83;;
25663;SDS011;13522;50.018;20.014;2023-02-20T18:43:22;8.85;;;4.10;;
25663;SDS011;13522;50.018;20.014;2023-02-20T18:46:34;6.68;;;3.68;;
25663;SDS011;13522;50.018;20.014;2023-02-20T18:49:47;8.20;;;3.75;;
25663;SDS011;13522;50.018;20.014;2023-02-20T18:52:59;6.93;;;3.95;;
25663;SDS011;13522;50.018;20.014;2023-02-20T18:56:11;9.05;;;3.88;;
25663;SDS011;13522;50.018;20.014;2023-02-20T18:59:24;7.43;;;3.73;;
25663;SDS011;13522;50.018;20.014;2023-02-20T19:02:39;6.73;;;3.60;;
25663;SDS011;13522;50.018;20.014;2023-02-20T19:05:52;9.08;;;3.98;;
25663;SDS011;13522;50.018;20.014;2023-02-20T19:09:04;8.83;;;3.73;;
25663;SDS011;13522;50.018;20.014;2023-02-20T19:12:17;10.93;;;4.15;;
25663;SDS011;13522;50.018;20.014;2023-02-20T19:15:29;6.65;;;3.50;;
25663;SDS011;13522;50.018;20.014;2023-02-20T19:18:41;5.60;;;3.53;;
25663;SDS011;13522;50.018;20.014;2023-02-20T19:21:54;6.35;;;3.28;;
25663;SDS011;13522;50.018;20.014;2023-02-20T19:25:08;9.33;;;3.30;;
25663;SDS011;13522;50.018;20.014;2023-02-20T19:28:21;7.28;;;3.05;;
25663;SDS011;13522;50.018;20.014;2023-02-20T19:31:33;5.58;;;3.58;;
25663;SDS011;13522;50.018;20.014;2023-02-20T19:34:45;8.45;;;3.30;;
25663;SDS011;13522;50.018;20.014;2023-02-20T19:37:58;4.73;;;2.70;;
25663;SDS011;13522;50.018;20.014;2023-02-20T19:41:12;8.48;;;3.20;;
25663;SDS011;13522;50.018;20.014;2023-02-20T19:44:25;7.40;;;3.58;;
25663;SDS011;13522;50.018;20.014;2023-02-20T19:47:38;11.23;;;3.73;;
25663;SDS011;13522;50.018;20.014;2023-02-20T19:50:49;9.33;;;3.40;;
25663;SDS011;13522;50.018;20.014;2023-02-20T19:54:02;7.30;;;3.35;;
25663;SDS011;13522;50.018;20.014;2023-02-20T19:57:14;5.38;;;2.93;;
25663;SDS011;13522;50.018;20.014;2023-02-20T20:00:27;9.18;;;3.73;;
25663;SDS011;13522;50.018;20.014;2023-02-20T20:03:39;10.30;;;3.05;;
25663;SDS011;13522;50.018;20.014;2023-02-20T20:06:52;9.83;;;3.60;;
25663;SDS011;13522;50.018;20.014;2023-02-20T20:10:06;7.95;;;3.53;;